Offutt Air Force Base
KOFF : now visible

Airfield :











YOU CAN JOIN US ON...

 
LOGIN :

Register | Disclaimer

   EN    FR    IT 

 









Legend :    VFR   Marginal VFR   IFR   Intensive IFR   Very Intensive IFR
Visi :
Ceiling :
>= 8 km
>= 3000ft
5 to 8 km
1000 to 3000 ft
1500m to 5 km
500 to 1000 ft
800 to 1500m
200 to 500 ft
< 800m
< 200 ft
Symbols :   Thunderstorms  Fog  Heavy snow  Heavy precipitations  Wind > 20 kt






- Airport Elevation : 1052 ft


KOFF - Offutt Air Force Base

CURRENT METAR :
  • 291356Z 00000KT 5SM BR OVC019 M03/M04 A3017 RMK AO2A SLP238 RVRNO $

EXPIRED METARs :
  • 291256Z 00000KT 5SM BR OVC022 M03/M04 A3016 RMK AO2A SLP232 RVRNO $
  • 291211Z AUTO 00000KT 8SM OVC024 M M RMK AO2 OVC V BKN SLPNO RVRNO $
  • 291156Z 00000KT 5SM BR BKN005 OVC044 M03/M04 A3014 RMK AO2A SLP227 RVRNO $

TAF TAF KOFF
Valid from the 29 at 10:00 until the 30 at 16:00 UTC


291000Z 2910/3016 VRB06KT 4800 BR OVC006 620065 QNH3012INS
BECMG 2915/2916 VRB06KT 8000 BR OVC008 620082 QNH3012INS
BECMG 3002/3003 18009KT 9999 NSW OVC010 620103 QNH3021INS TX00/2920Z TNM04/2912Z



MET'MAP, your aeronautical weather chart ! - Copyright ORBIFLY December 2007 - Disclaimer

ORBIFLY MET'MAP TEAM :

Programming & Development : Alexandra Zaïnal
Concept & original design : Baudouin d'Aumeries
Assistance for programming : Marc-Olivier Méhu
Technical & hardware support : Manuel Goepfert

Contact : metmap@orbifly.com




SOURCES & CREDITS :

   NOAA       Earth
Advisory